Time;durP1;ratioP1;P1;durP2;ratioP2;P2;SDS_P1;SDS_P2;PMS_P1;PMS_P2;Temp;Humidity;BMP_temperature;BMP_pressure;BME280_temperature;BME280_humidity;BME280_pressure;Samples;Min_cycle;Max_cycle;Signal;HPM_P1;HPM_P2
2021/07/31 00:00:07;;;;;;;;;2.00;1.00;;;;;19.04;100.00;100885.91;5101231;27;45570;-68
2021/07/31 00:02:32;;;;;;;;;3.00;3.00;;;;;19.10;100.00;100912.06;5116151;27;46275;-70
2021/07/31 00:04:58;;;;;;;;;3.00;3.00;;;;;19.08;100.00;100913.06;5119327;27;45379;-69
2021/07/31 00:07:23;;;;;;;;;2.50;2.50;;;;;19.02;100.00;100913.38;5119272;27;45275;-69
2021/07/31 00:09:48;;;;;;;;;5.00;3.00;;;;;19.00;100.00;100912.56;5119282;27;45286;-69
2021/07/31 00:12:14;;;;;;;;;2.00;2.00;;;;;18.91;100.00;100906.78;5098721;27;45292;-69
2021/07/31 00:14:39;;;;;;;;;2.25;2.00;;;;;18.88;100.00;100908.69;5111701;27;45500;-69
2021/07/31 00:17:07;;;;;;;;;3.00;3.00;;;;;18.86;100.00;100908.78;5105354;27;45826;-69
2021/07/31 00:19:33;;;;;;;;;3.25;2.00;;;;;18.85;100.00;100916.78;5107754;27;45510;-69
2021/07/31 00:21:58;;;;;;;;;4.00;2.50;;;;;18.83;100.00;100916.00;5116488;27;45405;-69
2021/07/31 00:24:23;;;;;;;;;1.75;1.75;;;;;18.79;100.00;100917.06;5118898;27;45442;-69
2021/07/31 00:26:49;;;;;;;;;2.25;2.25;;;;;18.70;100.00;100914.81;5119126;27;45775;-69
2021/07/31 00:29:14;;;;;;;;;3.00;2.00;;;;;18.71;100.00;100916.53;5111201;27;45501;-69
2021/07/31 00:31:40;;;;;;;;;3.00;2.00;;;;;18.67;100.00;100921.97;5114360;27;45455;-69
2021/07/31 00:34:05;;;;;;;;;2.75;2.00;;;;;18.70;100.00;100926.25;5113277;27;45409;-69
2021/07/31 00:36:30;;;;;;;;;1.50;1.50;;;;;18.54;100.00;100898.75;5109047;27;45481;-69
2021/07/31 00:38:56;;;;;;;;;1.00;1.00;;;;;18.64;100.00;100916.81;5104322;27;45503;-69
2021/07/31 00:41:21;;;;;;;;;1.25;1.00;;;;;18.58;100.00;100917.06;5098293;27;46367;-69
2021/07/31 00:43:47;;;;;;;;;2.00;2.00;;;;;18.60;100.00;100919.66;5099143;27;45493;-70
2021/07/31 00:46:12;;;;;;;;;2.00;1.50;;;;;18.50;100.00;100905.97;5104552;27;45468;-69
2021/07/31 00:48:37;;;;;;;;;1.25;1.25;;;;;18.56;100.00;100920.72;5118831;27;45401;-69
2021/07/31 00:51:03;;;;;;;;;1.50;1.50;;;;;18.46;100.00;100906.16;5103591;27;46382;-69
2021/07/31 00:53:29;;;;;;;;;2.25;2.25;;;;;18.41;100.00;100898.44;5098440;27;45315;-70
2021/07/31 00:55:57;;;;;;;;;1.00;1.00;;;;;18.41;100.00;100901.09;5110830;27;45269;-69
2021/07/31 00:58:23;;;;;;;;;2.50;2.00;;;;;18.39;100.00;100913.53;5100257;27;45565;-69
2021/07/31 01:00:49;;;;;;;;;3.00;2.00;;;;;18.42;100.00;100915.16;5118213;27;45462;-69
2021/07/31 01:03:14;;;;;;;;;1.50;1.50;;;;;18.40;100.00;100917.88;5116247;27;45400;-69
2021/07/31 01:05:40;;;;;;;;;2.00;1.00;;;;;18.40;100.00;100917.88;5118518;27;45394;-69
2021/07/31 01:08:05;;;;;;;;;3.25;2.00;;;;;18.34;100.00;100912.88;5118673;27;45477;-69
2021/07/31 01:10:32;;;;;;;;;3.25;2.00;;;;;18.38;100.00;100925.03;5113816;27;46125;-69
2021/07/31 01:13:00;;;;;;;;;1.00;1.00;;;;;18.34;100.00;100928.72;5118457;27;45533;-69
2021/07/31 01:15:25;;;;;;;;;2.00;1.75;;;;;18.30;100.00;100911.25;5113642;27;45441;-69
2021/07/31 01:17:50;;;;;;;;;1.75;1.50;;;;;18.29;100.00;100915.69;5108923;27;45415;-69
2021/07/31 01:20:16;;;;;;;;;0.50;0.50;;;;;18.24;100.00;100912.41;5103474;27;46420;-69
2021/07/31 01:22:41;;;;;;;;;2.50;1.50;;;;;18.20;100.00;100913.47;5109215;27;45399;-69
2021/07/31 01:25:07;;;;;;;;;2.25;2.00;;;;;18.25;100.00;100915.91;5112676;27;45381;-69
2021/07/31 01:27:34;;;;;;;;;2.00;1.00;;;;;18.27;100.00;100927.25;5111553;27;45373;-69
2021/07/31 01:30:00;;;;;;;;;2.00;1.00;;;;;18.23;100.00;100918.59;5099972;27;46361;-69
2021/07/31 01:32:25;;;;;;;;;1.50;1.00;;;;;18.23;100.00;100915.09;5117350;27;45485;-69
2021/07/31 01:34:50;;;;;;;;;3.00;2.00;;;;;18.11;100.00;100897.16;5118156;27;45364;-69
2021/07/31 01:37:16;;;;;;;;;2.00;2.00;;;;;18.16;100.00;100916.31;5118291;27;45340;-69
2021/07/31 01:39:42;;;;;;;;;2.00;2.00;;;;;18.09;100.00;100901.63;5117950;27;46669;-69
2021/07/31 01:42:07;;;;;;;;;2.00;2.00;;;;;18.04;100.00;100893.88;5117551;27;45410;-69
2021/07/31 01:44:33;;;;;;;;;3.00;3.00;;;;;18.11;100.00;100913.88;5112444;27;45540;-69
2021/07/31 01:46:58;;;;;;;;;3.00;3.00;;;;;18.06;100.00;100919.31;5114621;27;45495;-69
2021/07/31 01:49:24;;;;;;;;;1.25;1.25;;;;;18.02;100.00;100907.16;5084663;27;47285;-70
2021/07/31 01:51:49;;;;;;;;;3.00;3.00;;;;;17.98;100.00;100921.44;5100726;27;45407;-69
2021/07/31 01:54:15;;;;;;;;;4.25;2.25;;;;;17.94;100.00;100913.72;5091950;27;45498;-69
2021/07/31 01:56:40;;;;;;;;;2.00;2.00;;;;;17.89;100.00;100905.13;5099297;27;45441;-70
2021/07/31 01:59:06;;;;;;;;;2.00;2.00;;;;;17.92;100.00;100910.28;5099024;27;46321;-69
2021/07/31 02:01:31;;;;;;;;;1.75;1.50;;;;;17.88;100.00;100912.19;5100536;27;45655;-69
2021/07/31 02:03:56;;;;;;;;;2.00;2.00;;;;;17.88;100.00;100921.88;5098205;27;45694;-68
2021/07/31 02:06:22;;;;;;;;;2.25;2.00;;;;;17.80;100.00;100906.34;5117661;27;45440;-69
2021/07/31 02:08:47;;;;;;;;;3.00;2.00;;;;;17.80;100.00;100913.41;5103948;27;46045;-68
2021/07/31 02:11:13;;;;;;;;;3.50;2.00;;;;;17.77;100.00;100910.91;5102136;27;45436;-69
2021/07/31 02:13:39;;;;;;;;;3.50;2.50;;;;;17.69;100.00;100908.59;5117789;27;45421;-69
2021/07/31 02:16:05;;;;;;;;;2.50;2.00;;;;;17.71;100.00;100912.03;5113862;27;45376;-69
2021/07/31 02:18:31;;;;;;;;;2.50;1.25;;;;;17.63;100.00;100898.22;5117277;27;46140;-69
2021/07/31 02:20:56;;;;;;;;;3.25;3.25;;;;;17.62;100.00;100899.13;5111801;27;45461;-70
2021/07/31 02:23:22;;;;;;;;;2.00;2.00;;;;;17.63;100.00;100916.69;5096932;27;45329;-70
2021/07/31 02:25:47;;;;;;;;;1.25;1.25;;;;;17.56;100.00;100909.97;5097023;27;45315;-70
2021/07/31 02:28:12;;;;;;;;;2.00;2.00;;;;;17.51;100.00;100901.38;5096316;27;46340;-69
2021/07/31 02:30:38;;;;;;;;;3.75;2.75;;;;;17.50;100.00;100903.16;5106629;27;45535;-69
2021/07/31 02:33:03;;;;;;;;;3.00;2.50;;;;;17.52;100.00;100903.09;5114577;27;45468;-69
2021/07/31 02:35:33;;;;;;;;;4.00;3.00;;;;;17.51;100.00;100909.28;5110687;27;45555;-70
2021/07/31 02:38:02;;;;;;;;;2.00;1.25;;;;;17.42;100.00;100894.66;5116791;27;46501;-70
2021/07/31 02:40:28;;;;;;;;;2.00;1.75;;;;;17.44;100.00;100899.00;5098566;27;45523;-70
2021/07/31 02:42:54;;;;;;;;;0.00;0.00;;;;;17.43;100.00;100897.28;5116742;27;45720;-69
2021/07/31 02:45:19;;;;;;;;;1.00;1.00;;;;;17.26;100.00;100870.69;5117268;27;45322;-69
2021/07/31 02:47:44;;;;;;;;;2.00;1.75;;;;;17.35;100.00;100893.19;5116808;27;45460;-69
2021/07/31 02:50:10;;;;;;;;;2.00;2.00;;;;;17.38;100.00;100896.56;5098577;27;45341;-69
2021/07/31 02:52:35;;;;;;;;;2.00;2.00;;;;;17.29;100.00;100893.44;5116814;27;45553;-69
2021/07/31 02:55:04;;;;;;;;;2.00;2.00;;;;;17.31;100.00;100899.53;5116509;27;45469;-70
2021/07/31 02:57:30;;;;;;;;;2.00;2.00;;;;;17.35;100.00;100903.75;5103072;27;45371;-70
2021/07/31 02:59:55;;;;;;;;;3.00;2.00;;;;;17.30;100.00;100889.88;5103594;27;45482;-70
2021/07/31 03:02:21;;;;;;;;;1.25;1.25;;;;;17.34;100.00;100902.03;5113732;27;45464;-70
2021/07/31 03:04:47;;;;;;;;;3.50;2.25;;;;;17.27;100.00;100890.88;5106062;27;45466;-70
2021/07/31 03:07:12;;;;;;;;;2.25;2.00;;;;;17.27;100.00;100890.88;5113283;27;46089;-71
2021/07/31 03:09:37;;;;;;;;;2.50;1.50;;;;;17.24;100.00;100880.44;5107880;27;45400;-70
2021/07/31 03:12:03;;;;;;;;;2.00;2.00;;;;;17.26;100.00;100891.78;5110514;27;45268;-70
2021/07/31 03:14:29;;;;;;;;;3.25;2.50;;;;;17.27;100.00;100897.94;5111997;27;45368;-69
2021/07/31 03:16:54;;;;;;;;;1.75;1.75;;;;;17.29;100.00;100902.22;5116782;27;45521;-69
2021/07/31 03:19:19;;;;;;;;;1.00;1.00;;;;;17.29;100.00;100899.59;5097311;27;45387;-69
2021/07/31 03:21:45;;;;;;;;;2.00;2.00;;;;;17.27;100.00;100905.84;5106838;27;45332;-70
2021/07/31 03:24:10;;;;;;;;;2.00;2.00;;;;;17.21;100.00;100896.41;5116082;27;45305;-70
2021/07/31 03:26:36;;;;;;;;;2.00;1.00;;;;;17.17;100.00;100894.78;5116776;27;45437;-70
2021/07/31 03:29:01;;;;;;;;;3.50;2.00;;;;;17.25;100.00;100903.28;5119463;27;45508;-70
2021/07/31 03:31:27;;;;;;;;;1.00;1.00;;;;;17.24;100.00;100895.41;5112005;27;45553;-70
2021/07/31 03:33:52;;;;;;;;;3.00;2.00;;;;;17.17;100.00;100894.78;5112263;27;45612;-70
2021/07/31 03:36:17;;;;;;;;;2.00;2.00;;;;;17.31;100.00;100915.34;5114102;27;46371;-70
2021/07/31 03:38:43;;;;;;;;;3.00;1.50;;;;;17.27;100.00;100913.78;5109448;27;45781;-70
2021/07/31 03:41:08;;;;;;;;;3.50;2.00;;;;;17.26;100.00;100907.63;5103279;27;45453;-70
2021/07/31 03:43:34;;;;;;;;;1.00;1.00;;;;;17.21;100.00;100896.41;5107917;27;45401;-70
2021/07/31 03:45:59;;;;;;;;;2.00;1.25;;;;;17.26;100.00;100909.41;5119076;27;47034;-69
2021/07/31 03:48:24;;;;;;;;;2.50;2.00;;;;;17.27;100.00;100917.25;5104981;27;45402;-68
2021/07/31 03:50:50;;;;;;;;;2.00;2.00;;;;;17.22;100.00;100903.41;5119752;27;45566;-69
2021/07/31 03:53:15;;;;;;;;;3.00;1.50;;;;;17.26;100.00;100909.41;5115853;27;45800;-69
2021/07/31 03:55:45;;;;;;;;;2.75;1.25;;;;;17.29;100.00;100917.19;5104476;27;47220;-69
2021/07/31 03:58:11;;;;;;;;;1.75;1.75;;;;;17.28;100.00;100921.63;5113715;27;45631;-69
2021/07/31 04:00:36;;;;;;;;;3.25;2.00;;;;;17.24;100.00;100916.53;5086764;27;45422;-69
2021/07/31 04:03:01;;;;;;;;;1.50;1.50;;;;;17.24;100.00;100922.66;5119904;27;45383;-69
2021/07/31 04:05:27;;;;;;;;;3.00;1.00;;;;;17.30;100.00;100930.34;5104723;27;46517;-69
2021/07/31 04:07:52;;;;;;;;;3.00;3.00;;;;;17.30;100.00;100924.19;5119107;27;45493;-69
2021/07/31 04:10:18;;;;;;;;;3.00;2.00;;;;;17.35;100.00;100935.44;5119209;27;45842;-69
2021/07/31 04:12:43;;;;;;;;;3.00;2.25;;;;;17.31;100.00;100923.28;5105329;27;45457;-69
2021/07/31 04:15:09;;;;;;;;;1.25;1.25;;;;;17.26;100.00;100912.91;5106832;27;45438;-69
2021/07/31 04:17:35;;;;;;;;;3.00;2.00;;;;;17.23;100.00;100914.81;5116960;27;45777;-69
2021/07/31 04:20:00;;;;;;;;;3.25;2.25;;;;;17.31;100.00;100932.06;5108783;27;45393;-69
2021/07/31 04:22:26;;;;;;;;;2.75;2.50;;;;;17.29;100.00;100933.91;5113319;27;45316;-70
2021/07/31 04:24:52;;;;;;;;;2.50;2.00;;;;;17.32;100.00;100938.19;5088323;27;46052;-70
2021/07/31 04:27:18;;;;;;;;;4.00;3.00;;;;;17.27;100.00;100933.09;5119051;27;45285;-70
2021/07/31 04:29:44;;;;;;;;;2.25;2.25;;;;;17.26;100.00;100930.53;5116193;27;45495;-70
2021/07/31 04:32:09;;;;;;;;;3.00;3.00;;;;;17.24;100.00;100927.09;5118585;27;45428;-70
2021/07/31 04:34:35;;;;;;;;;2.75;2.75;;;;;17.33;100.00;100946.03;5100187;27;46425;-70
2021/07/31 04:37:00;;;;;;;;;4.00;3.00;;;;;17.35;100.00;100945.97;5108573;27;45442;-70
2021/07/31 04:39:26;;;;;;;;;3.00;2.00;;;;;17.27;100.00;100930.47;5113749;27;45660;-70
2021/07/31 04:41:51;;;;;;;;;3.75;3.75;;;;;17.28;100.00;100933.97;5111061;27;45320;-70
2021/07/31 04:44:17;;;;;;;;;3.00;2.50;;;;;17.22;100.00;100932.44;5112643;27;45409;-70
2021/07/31 04:46:42;;;;;;;;;4.00;3.00;;;;;17.32;100.00;100933.78;5104100;27;45336;-70
2021/07/31 04:49:07;;;;;;;;;3.00;3.00;;;;;17.33;100.00;100932.84;5109568;27;45440;-70
2021/07/31 04:51:33;;;;;;;;;3.25;2.50;;;;;17.37;100.00;100934.44;5100491;27;45316;-69
2021/07/31 04:53:58;;;;;;;;;2.75;2.00;;;;;17.36;100.00;100926.59;5097838;27;46903;-70
2021/07/31 04:56:23;;;;;;;;;3.00;3.00;;;;;17.50;100.00;100947.19;5113980;27;45488;-70
2021/07/31 04:58:49;;;;;;;;;4.50;2.75;;;;;17.54;100.00;100946.13;5118511;27;45316;-70
2021/07/31 05:01:14;;;;;;;;;3.00;3.00;;;;;17.62;100.00;100958.09;5118186;27;45527;-70
2021/07/31 05:03:40;;;;;;;;;3.25;3.00;;;;;17.60;100.00;100937.94;5103593;27;45406;-70
2021/07/31 05:06:08;;;;;;;;;2.00;2.00;;;;;17.67;100.00;100939.44;5111036;27;45456;-70
2021/07/31 05:08:34;;;;;;;;;3.00;3.00;;;;;17.85;100.00;100949.28;5112271;27;45401;-70
2021/07/31 05:11:09;;;;;;;;;4.00;3.00;;;;;17.88;100.00;100943.88;5106430;27;45526;-70
2021/07/31 05:13:37;;;;;;;;;1.00;1.00;;;;;17.87;100.00;100950.06;5117758;27;46277;-70
2021/07/31 05:16:03;;;;;;;;;3.00;3.00;;;;;17.93;100.00;100944.56;5098138;27;45521;-70
2021/07/31 05:18:28;;;;;;;;;3.00;3.00;;;;;17.96;100.00;100949.69;5109619;27;45372;-70
2021/07/31 05:20:53;;;;;;;;;3.00;2.00;;;;;17.93;100.00;100941.91;5116532;27;45437;-70
2021/07/31 05:23:19;;;;;;;;;2.00;2.00;;;;;17.94;100.00;100942.78;5117963;27;46422;-70
2021/07/31 05:25:45;;;;;;;;;3.00;2.00;;;;;17.92;100.00;100937.56;5116785;27;45483;-70
2021/07/31 05:28:11;;;;;;;;;1.00;1.00;;;;;17.86;100.00;100929.00;5107677;27;45573;-70
2021/07/31 05:30:38;;;;;;;;;3.25;3.00;;;;;17.82;100.00;100941.47;5118318;27;45316;-69
2021/07/31 05:33:04;;;;;;;;;2.00;2.00;;;;;17.60;100.00;100908.91;5111731;27;45550;-69
2021/07/31 05:35:30;;;;;;;;;4.00;3.75;;;;;17.78;100.00;100939.88;5109201;27;45608;-70
2021/07/31 05:37:56;;;;;;;;;3.00;3.00;;;;;17.78;100.00;100939.03;5112201;27;45605;-77
2021/07/31 05:40:21;;;;;;;;;5.00;3.00;;;;;17.75;100.00;100943.50;5107860;27;45397;-76
2021/07/31 05:42:47;;;;;;;;;6.00;3.00;;;;;17.75;100.00;100945.31;5112451;27;47524;-75
2021/07/31 05:45:12;;;;;;;;;2.50;2.50;;;;;17.73;100.00;100947.16;5117481;27;45435;-76
2021/07/31 05:47:37;;;;;;;;;4.50;3.50;;;;;17.77;100.00;100938.16;5104035;27;45467;-78
2021/07/31 05:50:06;;;;;;;;;3.00;3.00;;;;;17.75;100.00;100943.50;5104269;27;45461;-74
2021/07/31 05:52:37;;;;;;;;;5.00;4.00;;;;;17.83;100.00;100947.63;5114887;27;45469;-74
2021/07/31 05:55:03;;;;;;;;;5.00;4.00;;;;;17.83;100.00;100951.13;5116983;27;45547;-76
2021/07/31 05:57:29;;;;;;;;;4.00;3.25;;;;;17.85;100.00;100945.78;5097273;27;45399;-75
2021/07/31 05:59:54;;;;;;;;;5.75;4.75;;;;;17.77;100.00;100938.16;5109983;27;45457;-75
2021/07/31 06:02:20;;;;;;;;;3.75;3.00;;;;;17.82;100.00;100949.41;5112652;27;45412;-73
2021/07/31 06:04:45;;;;;;;;;3.00;3.00;;;;;17.88;100.00;100950.91;5117062;27;45461;-74
2021/07/31 06:07:11;;;;;;;;;3.25;3.00;;;;;17.94;100.00;100955.97;5098602;27;45488;-74
2021/07/31 06:09:38;;;;;;;;;6.75;4.00;;;;;17.98;100.00;100961.06;5108932;27;45491;-74
2021/07/31 06:12:05;;;;;;;;;6.00;3.00;;;;;18.03;100.00;100960.88;5110910;27;46498;-73
2021/07/31 06:14:33;;;;;;;;;4.50;3.25;;;;;18.08;100.00;100964.16;5104057;27;45441;-73
2021/07/31 06:16:59;;;;;;;;;5.25;4.00;;;;;18.10;100.00;100962.31;5103796;27;45381;-74
2021/07/31 06:19:24;;;;;;;;;5.00;4.00;;;;;18.11;100.00;100960.56;5116757;27;45438;-74
2021/07/31 06:21:50;;;;;;;;;5.50;4.25;;;;;18.15;100.00;100962.16;5116296;27;45479;-74
2021/07/31 06:24:16;;;;;;;;;4.00;4.00;;;;;18.23;100.00;100975.91;5117029;27;45440;-75
2021/07/31 06:26:41;;;;;;;;;3.00;2.75;;;;;18.21;100.00;100967.16;5097854;27;45424;-73
2021/07/31 06:29:06;;;;;;;;;3.00;3.00;;;;;18.21;100.00;100969.81;5102788;27;45373;-74
2021/07/31 06:31:32;;;;;;;;;4.00;3.00;;;;;18.24;100.00;100969.69;5116168;27;45300;-73
2021/07/31 06:33:58;;;;;;;;;4.00;3.25;;;;;18.26;100.00;100975.75;5116485;27;45598;-73
2021/07/31 06:36:23;;;;;;;;;3.75;3.50;;;;;18.28;100.00;100976.56;5116863;27;45526;-73
2021/07/31 06:38:49;;;;;;;;;4.00;4.00;;;;;18.31;100.00;100971.13;5106271;27;45437;-74
2021/07/31 06:41:15;;;;;;;;;4.75;4.00;;;;;18.39;100.00;100981.41;5112244;27;47376;-72
2021/07/31 06:43:40;;;;;;;;;3.50;3.25;;;;;18.34;100.00;100960.47;5104741;27;45705;-72
2021/07/31 06:46:13;;;;;;;;;5.00;4.25;;;;;18.49;100.00;100972.13;5112885;27;45428;-72
2021/07/31 06:48:39;;;;;;;;;5.00;4.00;;;;;18.61;100.00;100972.47;5117132;27;45539;-71
2021/07/31 06:51:05;;;;;;;;;6.75;6.00;;;;;18.71;100.00;100977.38;5115290;27;45438;-71
2021/07/31 06:53:30;;;;;;;;;5.00;3.25;;;;;18.75;100.00;100968.38;5097540;27;45373;-72
2021/07/31 06:56:00;;;;;;;;;4.50;3.75;;;;;18.83;100.00;100971.56;5116547;27;45437;-72
2021/07/31 06:58:25;;;;;;;;;4.25;4.00;;;;;18.86;100.00;100968.78;5116116;27;45481;-71
2021/07/31 07:00:51;;;;;;;;;7.75;3.00;;;;;18.83;100.00;100955.69;5116500;27;46310;-72
2021/07/31 07:03:16;;;;;;;;;3.25;3.00;;;;;18.87;100.00;100963.41;5119754;27;46795;-69
2021/07/31 07:05:42;;;;;;;;;4.75;4.25;;;;;18.93;100.00;100970.19;5121359;27;45264;-71
2021/07/31 07:08:07;;;;;;;;;5.00;4.00;;;;;18.86;100.00;100956.41;5120375;27;45363;-70
2021/07/31 07:10:33;;;;;;;;;5.00;5.00;;;;;18.93;100.00;100972.84;5117302;27;46634;-70
2021/07/31 07:12:59;;;;;;;;;5.75;3.25;;;;;18.98;100.00;100970.84;5107857;27;45451;-71
2021/07/31 07:15:27;;;;;;;;;4.50;3.75;;;;;19.11;100.00;100987.91;5101863;27;45427;-70
2021/07/31 07:17:53;;;;;;;;;5.00;4.75;;;;;19.06;100.00;100966.09;5120627;27;45292;-72
2021/07/31 07:20:19;;;;;;;;;5.00;5.00;;;;;19.24;100.00;100990.84;5120178;27;45472;-72
2021/07/31 07:22:44;;;;;;;;;6.00;4.75;;;;;19.18;100.00;100964.66;5119584;27;45398;-71
2021/07/31 07:25:10;;;;;;;;;4.75;3.25;;;;;19.31;100.00;100978.19;5109001;27;45675;-71
2021/07/31 07:27:35;;;;;;;;;5.00;4.00;;;;;19.36;100.00;100989.41;5116405;27;45402;-73
2021/07/31 07:30:01;;;;;;;;;5.00;5.00;;;;;19.33;100.00;100984.25;5106507;27;46564;-71
2021/07/31 07:32:26;;;;;;;;;5.00;4.50;;;;;19.43;100.00;100996.13;5120006;27;45295;-71
2021/07/31 07:34:51;;;;;;;;;6.00;3.00;;;;;19.57;100.00;100983.13;5119852;27;45384;-71
2021/07/31 07:37:17;;;;;;;;;4.00;4.00;;;;;19.71;100.00;100995.75;5119644;27;45481;-72
2021/07/31 07:39:42;;;;;;;;;4.50;4.50;;;;;19.79;100.00;100986.47;5119324;27;46280;-72
2021/07/31 07:42:08;;;;;;;;;5.75;5.00;;;;;19.77;100.00;100971.59;5119826;27;45367;-71
2021/07/31 07:44:34;;;;;;;;;4.75;4.00;;;;;20.02;100.00;101000.41;5119751;27;45579;-71
2021/07/31 07:46:59;;;;;;;;;4.25;4.25;;;;;20.04;100.00;101002.03;5119651;27;45352;-73
2021/07/31 07:49:24;;;;;;;;;4.25;4.25;;;;;20.04;100.00;100991.44;5119418;27;46461;-72
2021/07/31 07:51:50;;;;;;;;;7.75;5.00;;;;;20.07;100.00;100993.06;5119810;27;45310;-72
2021/07/31 07:54:15;;;;;;;;;6.00;6.00;;;;;20.07;100.00;100993.91;5119915;27;45406;-72
2021/07/31 07:56:40;;;;;;;;;5.75;5.50;;;;;20.05;100.00;100992.28;5119691;27;45399;-75
2021/07/31 07:59:06;;;;;;;;;7.00;6.50;;;;;20.03;100.00;100994.16;5119022;27;45456;-72
2021/07/31 08:01:32;;;;;;;;;6.00;4.25;;;;;20.02;100.00;100995.09;5112720;27;45436;-72
2021/07/31 08:04:01;;;;;;;;;3.00;3.00;;;;;19.98;100.00;100989.09;5118609;27;45450;-71
2021/07/31 08:06:27;;;;;;;;;5.50;5.00;;;;;20.02;100.00;100989.78;5100613;27;45426;-72
2021/07/31 08:08:55;;;;;;;;;6.25;5.25;;;;;20.09;100.00;100993.84;5119250;27;46337;-71
2021/07/31 08:11:20;;;;;;;;;3.00;3.00;;;;;20.10;100.00;101004.38;5119449;27;45423;-73
2021/07/31 08:13:45;;;;;;;;;4.50;3.00;;;;;20.07;100.00;100995.72;5118697;27;45409;-71
2021/07/31 08:16:11;;;;;;;;;4.75;4.25;;;;;19.99;100.00;100993.44;5119339;27;45154;-70
2021/07/31 08:18:36;;;;;;;;;5.00;4.00;;;;;19.95;100.00;100991.03;5106377;27;45437;-70
2021/07/31 08:21:02;;;;;;;;;5.00;5.00;;;;;19.96;100.00;100996.25;5103083;27;45461;-75
2021/07/31 08:23:27;;;;;;;;;7.75;5.00;;;;;19.95;100.00;100983.09;5119235;27;45541;-70
2021/07/31 08:25:53;;;;;;;;;3.00;3.00;;;;;20.06;100.00;100983.41;5119384;27;45307;-73
2021/07/31 08:28:18;;;;;;;;;4.25;4.00;;;;;20.23;100.00;100993.16;5110106;27;45370;-71
2021/07/31 08:30:46;;;;;;;;;5.00;4.00;;;;;20.44;100.00;101006.22;5098089;27;45421;-72
2021/07/31 08:33:11;;;;;;;;;4.00;3.25;;;;;20.51;100.00;100987.34;5118441;27;45403;-71
2021/07/31 08:35:47;;;;;;;;;6.00;5.00;;;;;20.68;100.00;100990.00;5119319;27;45297;-72
2021/07/31 08:38:12;;;;;;;;;5.00;4.50;;;;;20.87;100.00;100973.97;5118376;27;46158;-72
2021/07/31 08:40:40;;;;;;;;;6.75;4.25;;;;;21.17;100.00;101004.16;5116749;27;45465;-73
2021/07/31 08:43:06;;;;;;;;;4.50;4.50;;;;;21.28;100.00;100996.50;5116629;27;45252;-72
2021/07/31 08:45:32;;;;;;;;;6.00;4.75;;;;;21.42;100.00;100995.75;5118696;27;45312;-72
2021/07/31 08:48:03;;;;;;;;;4.00;4.00;;;;;21.62;100.00;100986.66;5118101;27;46386;-71
2021/07/31 08:50:30;;;;;;;;;3.75;3.75;;;;;21.77;100.00;100990.25;5118545;27;45569;-71
2021/07/31 08:52:57;;;;;;;;;3.75;3.50;;;;;21.93;100.00;100999.91;5118440;27;45280;-70
2021/07/31 08:55:23;;;;;;;;;4.75;3.75;;;;;22.07;100.00;100980.53;5118963;27;45412;-71
2021/07/31 08:57:48;;;;;;;;;4.00;4.00;;;;;22.36;100.00;100983.28;5118373;27;45447;-72
2021/07/31 09:00:14;;;;;;;;;2.50;2.50;;;;;22.75;100.00;100988.88;5117706;27;45426;-70
2021/07/31 09:02:45;;;;;;;;;3.00;3.00;;;;;22.92;100.00;101002.06;5118636;27;45469;-73
2021/07/31 09:05:12;;;;;;;;;4.75;4.25;;;;;23.04;100.00;100996.91;5118578;27;45437;-71
2021/07/31 09:07:39;;;;;;;;;4.25;4.00;;;;;22.96;100.00;100983.22;5085697;27;48270;-70
2021/07/31 09:10:25;;;;;;;;;4.00;4.00;;;;;22.87;100.00;100990.84;5109536;27;45401;-71
2021/07/31 09:13:17;;;;;;;;;3.25;3.00;;;;;22.94;100.00;101003.78;5097883;27;45441;-71
2021/07/31 09:15:46;;;;;;;;;4.75;4.00;;;;;23.06;100.00;100993.19;5011444;28;45571;-71
2021/07/31 09:18:25;;;;;;;;;4.25;4.25;;;;;23.37;100.00;100986.81;5003761;28;45450;-72
2021/07/31 09:21:21;;;;;;;;;3.75;3.00;;;;;23.53;100.00;100990.19;5014448;28;45553;-73
2021/07/31 09:23:53;;;;;;;;;4.75;4.25;;;;;23.58;100.00;100991.75;5013955;28;45466;-72
2021/07/31 09:26:30;;;;;;;;;4.75;3.75;;;;;23.58;100.00;101000.59;5013861;28;45676;-73
2021/07/31 09:29:01;;;;;;;;;4.25;4.00;;;;;23.65;100.00;101001.06;5013914;28;47296;-73
2021/07/31 09:31:27;;;;;;;;;3.00;3.00;;;;;23.77;100.00;100990.47;5014101;28;45314;-73
2021/07/31 09:33:53;;;;;;;;;5.00;4.00;;;;;23.78;100.00;100980.66;5014479;28;45519;-73
2021/07/31 09:36:18;;;;;;;;;4.50;3.00;;;;;24.08;100.00;100983.94;5017203;28;45524;-71
2021/07/31 09:38:47;;;;;;;;;4.00;4.00;;;;;24.45;100.00;100984.19;5013729;28;46678;-72
2021/07/31 09:41:24;;;;;;;;;3.00;3.00;;;;;24.83;100.00;100978.84;5014355;28;45499;-71
2021/07/31 09:44:10;;;;;;;;;3.00;3.00;;;;;25.30;100.00;100988.84;5014319;28;45471;-72
2021/07/31 09:46:37;;;;;;;;;5.25;4.00;;;;;25.30;100.00;100980.84;5015325;28;45371;-71
2021/07/31 09:49:04;;;;;;;;;5.00;3.00;;;;;25.09;100.00;100982.38;5014668;28;46097;-72
2021/07/31 09:51:35;;;;;;;;;4.00;3.00;;;;;24.75;100.00;100970.53;5012139;28;45446;-71
2021/07/31 09:54:02;;;;;;;;;3.75;3.75;;;;;24.52;100.00;100971.25;5089983;27;45353;-72
2021/07/31 09:56:33;;;;;;;;;5.00;4.00;;;;;24.36;100.00;100974.13;5097111;27;45583;-72
2021/07/31 09:59:02;;;;;;;;;2.50;2.00;;;;;24.20;100.00;100978.72;5096672;27;46443;-72
2021/07/31 10:01:28;;;;;;;;;3.75;3.75;;;;;24.21;100.00;100980.44;5077734;27;45958;-70
2021/07/31 10:03:57;;;;;;;;;3.25;3.00;;;;;24.28;100.00;100969.31;5096032;27;45580;-75
2021/07/31 10:06:23;;;;;;;;;3.75;3.75;;;;;24.48;100.00;100967.94;5098044;27;45403;-72
2021/07/31 10:08:50;;;;;;;;;3.00;2.00;;;;;24.61;100.00;100967.94;5086954;27;46400;-72
2021/07/31 10:11:16;;;;;;;;;3.25;2.75;;;;;24.71;100.00;100953.88;5089221;27;45455;-71
2021/07/31 10:13:42;;;;;;;;;4.00;3.50;;;;;24.74;100.00;100963.47;5075034;27;45685;-73
2021/07/31 10:16:07;;;;;;;;;3.00;3.00;;;;;24.65;100.00;100958.75;5082664;27;45428;-69
2021/07/31 10:18:33;;;;;;;;;4.25;3.50;;;;;24.69;100.00;100962.94;5076515;27;47087;-72
2021/07/31 10:21:06;;;;;;;;;2.00;2.00;;;;;24.73;100.00;100959.09;5081289;27;45380;-72
2021/07/31 10:24:10;;;;;;;;;3.00;3.00;;;;;24.90;100.00;100957.91;5089822;27;45557;-72
2021/07/31 10:26:39;;;;;;;;;4.00;4.00;;;;;25.08;100.00;100956.63;5003625;28;45538;-70
2021/07/31 10:29:29;;;;;;;;;5.00;3.75;;;;;25.33;100.00;100961.91;5014271;28;45429;-73
2021/07/31 10:31:55;;;;;;;;;3.25;2.50;;;;;25.84;100.00;100937.69;5021138;28;45681;-73
2021/07/31 10:34:44;;;;;;;;;4.00;3.25;;;;;27.22;100.00;100941.25;5014975;28;46590;-72
2021/07/31 10:37:29;;;;;;;;;3.50;2.75;;;;;28.46;100.00;100941.66;5018823;28;45463;-71
2021/07/31 10:39:55;;;;;;;;;2.25;2.25;;;;;29.45;100.00;100944.56;5018471;28;46921;-74
2021/07/31 10:42:21;;;;;;;;;2.75;2.75;;;;;29.34;100.00;100947.31;5020339;28;45383;-73
2021/07/31 10:45:15;;;;;;;;;2.75;2.50;;;;;29.21;100.00;100941.34;5019847;28;45795;-72
2021/07/31 10:47:41;;;;;;;;;4.00;4.00;;;;;28.98;100.00;100935.31;5021006;28;45603;-71
2021/07/31 10:50:21;;;;;;;;;3.00;3.00;;;;;28.52;100.00;100941.16;5030826;28;46740;-73
2021/07/31 10:52:56;;;;;;;;;3.50;2.00;;;;;28.16;100.00;100932.53;5023792;28;45664;-72
2021/07/31 10:55:24;;;;;;;;;3.00;2.75;;;;;28.20;100.00;100939.34;5027403;28;45645;-73
2021/07/31 10:57:52;;;;;;;;;3.00;3.00;;;;;28.26;100.00;100935.31;5061912;27;45389;-72
2021/07/31 11:00:29;;;;;;;;;2.50;2.25;;;;;27.63;100.00;100934.38;5101418;27;46215;-72
2021/07/31 11:02:58;;;;;;;;;2.00;1.25;;;;;26.96;100.00;100939.78;5102988;27;45419;-72
2021/07/31 11:05:24;;;;;;;;;5.00;5.00;;;;;26.32;100.00;100929.56;5102491;27;45420;-73
2021/07/31 11:08:00;;;;;;;;;3.50;3.50;;;;;25.97;100.00;100937.59;5101939;27;45496;-72
2021/07/31 11:10:47;;;;;;;;;2.50;2.00;;;;;26.59;100.00;100940.00;5096691;27;45360;-72
2021/07/31 11:13:35;;;;;;;;;4.00;3.00;;;;;29.22;100.00;100933.13;5102629;27;45626;-71
2021/07/31 11:16:18;;;;;;;;;3.50;3.25;;;;;29.75;100.00;100927.44;5102592;27;45505;-73